createdAt,value
2018-10-17T00:01:52.806Z,14.80
2018-10-17T00:04:20.904Z,14.80
2018-10-17T00:06:48.888Z,14.80
2018-10-17T00:09:16.907Z,14.80
2018-10-17T00:11:44.908Z,14.80
2018-10-17T00:14:12.905Z,14.80
2018-10-17T00:16:40.910Z,14.70
2018-10-17T00:19:08.964Z,14.60
2018-10-17T00:21:36.888Z,14.60
2018-10-17T00:24:05.177Z,14.50
2018-10-17T00:26:33.196Z,14.40
2018-10-17T00:29:01.264Z,14.30
2018-10-17T00:31:29.300Z,14.30
2018-10-17T00:33:57.314Z,14.30
2018-10-17T00:36:25.309Z,14.30
2018-10-17T00:38:53.276Z,14.20
2018-10-17T00:41:21.248Z,14.20
2018-10-17T00:43:49.232Z,14.20
2018-10-17T00:46:17.321Z,14.20
2018-10-17T00:48:45.288Z,14.10
2018-10-17T00:51:13.408Z,14.10
2018-10-17T00:53:41.402Z,14.10
2018-10-17T00:56:09.625Z,14.10
2018-10-17T00:58:37.635Z,14.10
2018-10-17T01:01:05.716Z,14.10
2018-10-17T01:03:33.851Z,14.10
2018-10-17T01:06:01.848Z,14.10
2018-10-17T01:08:29.850Z,14.20
2018-10-17T01:10:57.843Z,14.10
2018-10-17T01:13:26.322Z,14.10
2018-10-17T01:15:54.369Z,14.10
2018-10-17T01:18:22.364Z,14.10
2018-10-17T01:20:50.568Z,14.30
2018-10-17T01:23:18.564Z,14.30
2018-10-17T01:25:46.548Z,14.30
2018-10-17T01:28:14.627Z,14.30
2018-10-17T01:30:42.616Z,14.20
2018-10-17T01:33:10.620Z,14.10
2018-10-17T01:35:38.618Z,13.90
2018-10-17T01:38:06.592Z,13.80
2018-10-17T01:40:34.593Z,13.80
2018-10-17T01:43:02.636Z,13.80
2018-10-17T01:45:30.584Z,13.70
2018-10-17T01:47:58.584Z,13.70
2018-10-17T01:50:26.593Z,13.70
2018-10-17T01:52:54.626Z,13.70
2018-10-17T01:55:22.573Z,13.80
2018-10-17T01:57:50.560Z,13.80
2018-10-17T02:00:18.567Z,13.80
2018-10-17T02:02:46.552Z,13.80
2018-10-17T02:05:14.614Z,13.70
2018-10-17T02:07:42.652Z,13.70
2018-10-17T02:10:10.652Z,13.80
2018-10-17T02:12:38.676Z,13.80
2018-10-17T02:15:06.768Z,13.80
2018-10-17T02:17:34.864Z,13.80
2018-10-17T02:20:02.904Z,14.00
2018-10-17T02:22:30.903Z,14.00
2018-10-17T02:24:58.956Z,14.00
2018-10-17T02:27:26.892Z,13.90
2018-10-17T02:29:54.911Z,13.90
2018-10-17T02:32:22.981Z,13.90
2018-10-17T02:34:56.436Z,13.90
2018-10-17T02:37:24.452Z,13.90
2018-10-17T02:39:52.433Z,13.90
2018-10-17T02:42:20.457Z,13.80
2018-10-17T02:44:48.440Z,13.80
2018-10-17T02:47:16.531Z,13.80
2018-10-17T02:49:44.417Z,13.80
2018-10-17T02:52:12.417Z,13.70
2018-10-17T02:54:40.387Z,13.70
2018-10-17T02:57:08.395Z,13.70
2018-10-17T02:59:36.389Z,13.70
2018-10-17T03:02:04.402Z,13.60
2018-10-17T03:04:32.397Z,13.60
2018-10-17T03:07:00.399Z,13.60
2018-10-17T03:09:28.360Z,13.60
2018-10-17T03:11:56.329Z,13.60
2018-10-17T03:14:24.361Z,13.70
2018-10-17T03:16:52.405Z,13.60
2018-10-17T03:19:20.442Z,13.50
2018-10-17T03:21:48.406Z,13.50
2018-10-17T03:24:16.426Z,13.50
2018-10-17T03:26:44.499Z,13.50
2018-10-17T03:29:12.633Z,13.60
2018-10-17T03:31:40.523Z,13.60
2018-10-17T03:34:08.508Z,13.60
2018-10-17T03:36:36.797Z,13.50
2018-10-17T03:39:07.770Z,13.50
2018-10-17T03:41:35.770Z,13.60
2018-10-17T03:44:03.778Z,13.60
2018-10-17T03:46:31.780Z,13.60
2018-10-17T03:48:59.831Z,13.60
2018-10-17T03:51:27.733Z,13.60
2018-10-17T03:53:55.717Z,13.60
2018-10-17T03:56:24.142Z,13.70
2018-10-17T03:58:52.180Z,13.70
2018-10-17T04:01:20.133Z,13.70
2018-10-17T04:03:48.133Z,13.60
2018-10-17T04:06:16.144Z,13.60
2018-10-17T04:08:44.157Z,13.60
2018-10-17T04:11:12.232Z,13.60
2018-10-17T04:13:40.187Z,13.60
2018-10-17T04:16:08.154Z,13.60
2018-10-17T04:18:36.213Z,13.60
2018-10-17T04:21:04.332Z,13.60
2018-10-17T04:23:32.406Z,13.70
2018-10-17T04:26:00.419Z,13.60
2018-10-17T04:28:28.424Z,13.60
2018-10-17T04:30:56.425Z,13.70
2018-10-17T04:33:24.435Z,13.70
2018-10-17T04:35:52.389Z,13.60
2018-10-17T04:38:20.383Z,13.70
2018-10-17T04:40:48.373Z,13.70
2018-10-17T04:43:16.539Z,13.70
2018-10-17T04:45:44.393Z,13.80
2018-10-17T04:48:12.393Z,13.80
2018-10-17T04:50:40.381Z,13.70
2018-10-17T04:53:08.422Z,13.70
2018-10-17T04:55:36.370Z,13.70
2018-10-17T04:58:04.471Z,13.80
2018-10-17T05:00:32.511Z,13.70
2018-10-17T05:03:00.497Z,13.70
2018-10-17T05:05:28.496Z,13.70
2018-10-17T05:07:56.498Z,13.80
2018-10-17T05:10:24.487Z,13.90
2018-10-17T05:12:52.651Z,13.90
2018-10-17T05:15:20.782Z,13.80
2018-10-17T05:17:48.689Z,13.70
2018-10-17T05:20:16.667Z,13.70
2018-10-17T05:22:44.653Z,13.70
2018-10-17T05:25:12.734Z,13.60
2018-10-17T05:27:40.645Z,13.60
2018-10-17T05:30:08.703Z,13.60
2018-10-17T05:32:36.725Z,13.60
2018-10-17T05:35:05.890Z,13.60
2018-10-17T05:37:33.866Z,13.50
2018-10-17T05:40:01.861Z,13.50
2018-10-17T05:42:30.217Z,13.60
2018-10-17T05:44:58.222Z,13.60
2018-10-17T05:47:26.234Z,13.50
2018-10-17T05:49:54.241Z,13.50
2018-10-17T05:52:22.312Z,13.50
2018-10-17T05:54:50.383Z,13.50
2018-10-17T05:57:18.358Z,13.50
2018-10-17T05:59:46.561Z,13.50
2018-10-17T06:02:18.446Z,13.50
2018-10-17T06:04:46.325Z,13.50
2018-10-17T06:07:14.386Z,13.50
2018-10-17T06:09:42.402Z,13.50
2018-10-17T06:12:10.430Z,13.50
2018-10-17T06:14:38.427Z,13.60
2018-10-17T06:17:06.547Z,13.60
2018-10-17T06:19:41.457Z,13.70
2018-10-17T06:22:09.629Z,13.70
2018-10-17T06:24:37.653Z,13.70
2018-10-17T06:27:05.723Z,13.70
2018-10-17T06:29:33.729Z,13.80
2018-10-17T06:32:01.812Z,13.80
2018-10-17T06:34:29.897Z,13.80
2018-10-17T06:36:57.885Z,13.80
2018-10-17T06:39:25.893Z,13.90
2018-10-17T06:41:53.999Z,13.90
2018-10-17T06:44:22.039Z,14.00
2018-10-17T06:46:50.097Z,14.00
2018-10-17T06:49:24.869Z,14.10
2018-10-17T06:51:52.857Z,14.20
2018-10-17T06:54:20.957Z,14.20
2018-10-17T06:56:48.960Z,14.20
2018-10-17T06:59:17.077Z,14.20
2018-10-17T07:01:45.184Z,14.30
2018-10-17T07:04:13.131Z,14.40
2018-10-17T07:06:41.338Z,14.40
2018-10-17T07:09:10.160Z,14.30
2018-10-17T07:11:38.361Z,14.30
2018-10-17T07:14:06.400Z,14.30
2018-10-17T07:16:34.438Z,14.30
2018-10-17T07:19:02.667Z,14.30
2018-10-17T07:21:30.685Z,14.30
2018-10-17T07:23:58.747Z,14.40
2018-10-17T07:26:26.751Z,14.40
2018-10-17T07:28:55.217Z,14.40
2018-10-17T07:31:23.189Z,14.40
2018-10-17T07:33:51.580Z,14.50
2018-10-17T07:36:19.761Z,14.60
2018-10-17T07:38:47.671Z,14.70
2018-10-17T07:41:15.746Z,14.80
2018-10-17T07:43:43.881Z,14.90
2018-10-17T07:46:11.905Z,15.10
2018-10-17T07:48:39.968Z,15.20
2018-10-17T07:51:08.043Z,15.30
2018-10-17T07:53:36.333Z,15.40
2018-10-17T07:56:04.440Z,15.50
2018-10-17T07:58:32.856Z,15.50
2018-10-17T08:01:00.894Z,15.60
2018-10-17T08:03:28.951Z,15.60
2018-10-17T08:05:56.934Z,15.70
2018-10-17T08:08:24.980Z,15.70
2018-10-17T08:10:52.962Z,15.80
2018-10-17T08:13:20.981Z,15.80
2018-10-17T08:15:48.971Z,15.80
2018-10-17T08:18:17.080Z,15.90
2018-10-17T08:20:45.034Z,15.90
2018-10-17T08:23:13.205Z,15.80
2018-10-17T08:25:41.265Z,15.90
2018-10-17T08:28:09.336Z,16.00
2018-10-17T08:30:37.332Z,16.10
2018-10-17T08:33:06.105Z,16.10
2018-10-17T08:35:34.223Z,16.20
2018-10-17T08:38:02.140Z,16.20
2018-10-17T08:40:30.101Z,16.40
2018-10-17T08:42:58.098Z,16.50
2018-10-17T08:45:26.105Z,16.50
2018-10-17T08:47:54.221Z,16.60
2018-10-17T08:50:22.177Z,16.70
2018-10-17T08:52:50.254Z,16.80
2018-10-17T08:55:18.269Z,16.90
2018-10-17T08:57:46.441Z,17.00
2018-10-17T09:00:14.369Z,17.00
2018-10-17T09:02:42.458Z,17.20
2018-10-17T09:05:10.585Z,17.30
2018-10-17T09:07:38.728Z,17.30
2018-10-17T09:10:06.871Z,17.40
2018-10-17T09:12:34.901Z,17.50
2018-10-17T09:15:02.991Z,17.60
2018-10-17T09:17:31.029Z,17.80
2018-10-17T09:19:59.366Z,18.00
2018-10-17T09:22:27.351Z,18.20
2018-10-17T09:24:55.230Z,18.40
2018-10-17T09:27:23.201Z,18.50
2018-10-17T09:29:51.216Z,18.70
2018-10-17T09:32:19.194Z,18.90
2018-10-17T09:34:47.362Z,18.90
2018-10-17T09:37:15.365Z,19.00
2018-10-17T09:39:43.880Z,19.10
2018-10-17T09:42:11.922Z,19.20
2018-10-17T09:44:39.862Z,19.30
2018-10-17T09:47:07.903Z,19.40
2018-10-17T09:49:35.997Z,19.60
2018-10-17T09:52:04.296Z,19.70
2018-10-17T09:54:32.262Z,19.80
2018-10-17T09:57:00.377Z,19.90
2018-10-17T09:59:28.548Z,20.00
2018-10-17T10:01:56.619Z,20.10
2018-10-17T10:04:24.658Z,20.00
2018-10-17T10:06:52.947Z,20.10
2018-10-17T10:09:21.188Z,20.10
2018-10-17T10:11:49.132Z,20.20
2018-10-17T10:14:17.116Z,20.30
2018-10-17T10:16:45.156Z,20.20
2018-10-17T10:19:13.182Z,20.40
2018-10-17T10:21:41.328Z,20.50
2018-10-17T10:24:09.530Z,20.70
2018-10-17T10:26:37.572Z,20.80
2018-10-17T10:29:05.623Z,21.00
2018-10-17T10:31:33.744Z,21.10
2018-10-17T10:34:01.819Z,21.20
2018-10-17T10:36:29.824Z,21.20
2018-10-17T10:38:57.855Z,21.30
2018-10-17T10:41:25.876Z,21.40
2018-10-17T10:43:53.924Z,21.50
2018-10-17T10:46:21.941Z,21.70
2018-10-17T10:48:49.964Z,21.90
2018-10-17T10:51:18.140Z,21.90
2018-10-17T10:53:46.085Z,22.30
2018-10-17T10:56:14.158Z,22.70
2018-10-17T10:58:42.264Z,23.20
2018-10-17T11:01:10.185Z,23.80
2018-10-17T11:03:38.277Z,25.50
2018-10-17T11:06:07.300Z,27.40
2018-10-17T11:08:35.451Z,28.40
2018-10-17T11:11:03.483Z,29.20
2018-10-17T11:13:31.476Z,29.40
2018-10-17T11:15:59.489Z,29.70
2018-10-17T11:18:27.535Z,30.10
2018-10-17T11:20:55.584Z,30.30
2018-10-17T11:23:23.529Z,31.30
2018-10-17T11:25:51.560Z,31.60
2018-10-17T11:28:19.810Z,32.50
2018-10-17T11:30:47.853Z,32.60
2018-10-17T11:33:15.939Z,33.90
2018-10-17T11:35:43.889Z,34.80
2018-10-17T11:38:11.865Z,35.00
2018-10-17T11:40:39.929Z,34.50
2018-10-17T11:43:07.873Z,33.70
2018-10-17T11:45:36.057Z,34.50
2018-10-17T11:48:04.042Z,35.70
2018-10-17T11:50:32.162Z,35.50
2018-10-17T11:53:00.070Z,34.80
2018-10-17T11:55:28.058Z,32.90
2018-10-17T11:57:56.082Z,32.80
2018-10-17T12:00:24.092Z,32.60
2018-10-17T12:02:53.008Z,33.20
2018-10-17T12:05:21.271Z,34.20
2018-10-17T12:07:49.020Z,34.70
2018-10-17T12:10:17.059Z,35.70
2018-10-17T12:12:45.030Z,36.40
2018-10-17T12:15:14.487Z,36.70
2018-10-17T12:17:42.591Z,36.90
2018-10-17T12:20:12.617Z,35.90
2018-10-17T12:22:41.404Z,35.70
2018-10-17T12:25:09.925Z,36.50
2018-10-17T12:27:38.394Z,36.70
2018-10-17T12:30:08.102Z,38.20
2018-10-17T12:32:36.106Z,39.00
2018-10-17T12:35:04.368Z,39.40
2018-10-17T12:37:32.689Z,39.10
2018-10-17T12:40:00.777Z,39.10
2018-10-17T12:42:28.798Z,38.50
2018-10-17T12:44:56.833Z,39.40
2018-10-17T12:47:31.635Z,40.00
2018-10-17T12:49:59.757Z,39.20
2018-10-17T12:52:27.750Z,39.70
2018-10-17T12:54:55.732Z,39.40
2018-10-17T12:57:23.686Z,38.70
2018-10-17T12:59:51.772Z,38.70
2018-10-17T13:02:19.758Z,38.50
2018-10-17T13:04:47.810Z,37.30
2018-10-17T13:07:15.963Z,37.90
2018-10-17T13:09:43.883Z,38.30
2018-10-17T13:12:11.882Z,37.50
2018-10-17T13:14:39.913Z,37.30
2018-10-17T13:17:08.120Z,36.90
2018-10-17T13:19:36.065Z,36.80
2018-10-17T13:22:04.104Z,37.80
2018-10-17T13:24:32.177Z,37.30
2018-10-17T13:27:00.177Z,37.90
2018-10-17T13:29:28.229Z,38.20
2018-10-17T13:31:56.289Z,38.40
2018-10-17T13:34:24.326Z,38.70
2018-10-17T13:36:52.330Z,38.20
2018-10-17T13:39:20.298Z,38.50
2018-10-17T13:41:48.353Z,37.90
2018-10-17T13:44:16.407Z,37.60
2018-10-17T13:46:44.582Z,37.40
2018-10-17T13:49:12.717Z,37.20
2018-10-17T13:51:40.570Z,37.20
2018-10-17T13:54:08.553Z,37.90
2018-10-17T13:56:36.591Z,37.50
2018-10-17T13:59:05.540Z,37.50
2018-10-17T14:01:33.569Z,38.00
2018-10-17T14:04:02.146Z,38.30
2018-10-17T14:06:30.126Z,38.80
2018-10-17T14:08:58.178Z,38.30
2018-10-17T14:11:26.161Z,37.20
2018-10-17T14:13:54.133Z,35.70
2018-10-17T14:16:22.101Z,35.30
2018-10-17T14:18:50.121Z,34.50
2018-10-17T14:21:18.194Z,34.60
2018-10-17T14:23:46.157Z,34.90
2018-10-17T14:26:14.227Z,35.40
2018-10-17T14:28:42.237Z,34.90
2018-10-17T14:31:10.302Z,34.90
2018-10-17T14:33:38.309Z,35.50
2018-10-17T14:36:06.511Z,35.10
2018-10-17T14:38:34.491Z,34.90
2018-10-17T14:41:02.575Z,33.80
2018-10-17T14:43:30.576Z,33.50
2018-10-17T14:45:58.643Z,33.90
2018-10-17T14:48:26.700Z,33.90
2018-10-17T14:50:54.725Z,33.10
2018-10-17T14:53:22.693Z,32.70
2018-10-17T14:55:50.777Z,31.90
2018-10-17T14:58:18.748Z,32.10
2018-10-17T15:00:46.838Z,32.50
2018-10-17T15:03:14.870Z,32.00
2018-10-17T15:05:42.877Z,30.80
2018-10-17T15:08:10.903Z,29.80
2018-10-17T15:10:39.045Z,30.10
2018-10-17T15:13:06.921Z,30.40
2018-10-17T15:15:38.973Z,29.90
2018-10-17T15:18:07.370Z,29.40
2018-10-17T15:20:35.552Z,28.50
2018-10-17T15:23:03.749Z,27.30
2018-10-17T15:25:31.948Z,26.60
2018-10-17T15:27:59.974Z,26.30
2018-10-17T15:30:28.020Z,25.80
2018-10-17T15:32:56.132Z,25.30
2018-10-17T15:35:24.082Z,25.10
2018-10-17T15:37:52.137Z,24.80
2018-10-17T15:40:20.164Z,24.50
2018-10-17T15:42:48.374Z,24.50
2018-10-17T15:45:16.531Z,24.50
2018-10-17T15:47:44.685Z,24.50
2018-10-17T15:50:12.737Z,24.40
2018-10-17T15:52:40.757Z,24.40
2018-10-17T15:55:08.778Z,24.40
2018-10-17T15:57:37.870Z,24.20
2018-10-17T16:00:08.469Z,24.10
2018-10-17T16:02:36.465Z,24.00
2018-10-17T16:05:05.922Z,23.90
2018-10-17T16:07:34.134Z,23.80
2018-10-17T16:10:02.178Z,23.70
2018-10-17T16:12:30.339Z,23.60
2018-10-17T16:14:58.484Z,23.50
2018-10-17T16:17:26.490Z,23.40
2018-10-17T16:19:54.536Z,23.30
2018-10-17T16:22:22.604Z,23.20
2018-10-17T16:24:50.655Z,23.10
2018-10-17T16:27:18.737Z,23.00
2018-10-17T16:29:46.761Z,22.80
2018-10-17T16:32:14.833Z,22.80
2018-10-17T16:34:42.786Z,22.70
2018-10-17T16:37:10.857Z,22.60
2018-10-17T16:39:38.901Z,22.50
2018-10-17T16:42:07.123Z,22.40
2018-10-17T16:44:35.137Z,22.30
2018-10-17T16:47:03.166Z,22.30
2018-10-17T16:49:31.212Z,22.20
2018-10-17T16:51:59.216Z,22.10
2018-10-17T16:54:27.213Z,21.90
2018-10-17T16:56:55.250Z,21.70
2018-10-17T16:59:23.231Z,21.70
2018-10-17T17:01:51.269Z,21.60
2018-10-17T17:04:19.350Z,21.50
2018-10-17T17:06:47.322Z,21.30
2018-10-17T17:09:15.563Z,21.10
2018-10-17T17:11:43.557Z,21.10
2018-10-17T17:14:11.608Z,21.10
2018-10-17T17:16:39.629Z,21.00
2018-10-17T17:19:08.623Z,21.00
2018-10-17T17:21:36.781Z,21.00
2018-10-17T17:24:04.937Z,20.90
2018-10-17T17:26:33.130Z,20.90
2018-10-17T17:29:01.247Z,20.80
2018-10-17T17:31:29.270Z,20.90
2018-10-17T17:33:57.281Z,20.90
2018-10-17T17:36:25.351Z,20.90
2018-10-17T17:38:53.483Z,20.80
2018-10-17T17:41:22.004Z,20.60
2018-10-17T17:43:50.061Z,20.50
2018-10-17T17:46:18.133Z,20.40
2018-10-17T17:48:46.175Z,20.40
2018-10-17T17:51:14.349Z,20.30
2018-10-17T17:53:42.391Z,20.30
2018-10-17T17:56:10.388Z,20.20
2018-10-17T17:58:38.533Z,20.10
2018-10-17T18:01:06.432Z,20.00
2018-10-17T18:03:34.497Z,19.90
2018-10-17T18:06:02.491Z,19.80
2018-10-17T18:08:30.543Z,19.80
2018-10-17T18:11:24.161Z,19.80
2018-10-17T18:13:53.147Z,19.80
2018-10-17T18:16:21.296Z,19.70
2018-10-17T18:18:49.329Z,19.80
2018-10-17T18:21:17.337Z,19.70
2018-10-17T18:23:45.715Z,19.60
2018-10-17T18:26:14.105Z,19.40
2018-10-17T18:28:42.878Z,19.40
2018-10-17T18:31:11.162Z,19.40
2018-10-17T18:33:39.220Z,19.40
2018-10-17T18:36:07.296Z,19.40
2018-10-17T18:38:35.261Z,19.40
2018-10-17T18:41:03.393Z,19.40
2018-10-17T18:43:31.389Z,19.40
2018-10-17T18:45:59.445Z,19.40
2018-10-17T18:48:27.443Z,19.30
2018-10-17T18:50:55.494Z,19.20
2018-10-17T18:53:23.465Z,19.00
2018-10-17T18:55:51.642Z,19.00
2018-10-17T18:58:19.525Z,18.80
2018-10-17T19:00:47.551Z,18.80
2018-10-17T19:03:15.621Z,18.70
2018-10-17T19:05:43.622Z,18.60
2018-10-17T19:08:11.627Z,18.50
2018-10-17T19:10:39.660Z,18.40
2018-10-17T19:13:07.708Z,18.40
2018-10-17T19:15:35.721Z,18.30
2018-10-17T19:18:03.851Z,18.20
2018-10-17T19:20:31.867Z,18.20
2018-10-17T19:22:59.918Z,18.10
2018-10-17T19:25:27.917Z,18.00
2018-10-17T19:27:56.074Z,18.00
2018-10-17T19:30:24.256Z,18.10
2018-10-17T19:32:52.315Z,18.10
2018-10-17T19:35:20.489Z,18.10
2018-10-17T19:37:48.523Z,18.00
2018-10-17T19:40:16.597Z,17.90
2018-10-17T19:42:44.589Z,17.90
2018-10-17T19:45:12.800Z,17.80
2018-10-17T19:47:41.102Z,17.80
2018-10-17T19:50:09.528Z,17.80
2018-10-17T19:52:37.716Z,17.80
2018-10-17T19:55:06.981Z,17.70
2018-10-17T19:57:35.045Z,17.70
2018-10-17T20:00:03.044Z,17.60
2018-10-17T20:02:31.103Z,17.60
2018-10-17T20:04:59.098Z,17.60
2018-10-17T20:07:27.171Z,17.70
2018-10-17T20:09:55.198Z,17.70
2018-10-17T20:12:23.193Z,17.70
2018-10-17T20:14:51.203Z,17.80
2018-10-17T20:17:19.220Z,17.70
2018-10-17T20:19:47.277Z,17.70
2018-10-17T20:22:15.370Z,17.70
2018-10-17T20:24:43.353Z,17.80
2018-10-17T20:27:11.395Z,17.80
2018-10-17T20:29:39.809Z,17.80
2018-10-17T20:32:08.386Z,17.80
2018-10-17T20:34:36.541Z,17.70
2018-10-17T20:37:04.590Z,17.70
2018-10-17T20:39:32.593Z,17.60
2018-10-17T20:42:00.787Z,17.60
2018-10-17T20:44:28.749Z,17.60
2018-10-17T20:46:56.808Z,17.50
2018-10-17T20:49:24.850Z,17.40
2018-10-17T20:51:52.925Z,17.40
2018-10-17T20:54:20.926Z,17.40
2018-10-17T20:56:49.208Z,17.40
2018-10-17T20:59:17.377Z,17.30
2018-10-17T21:01:45.407Z,17.20
2018-10-17T21:04:13.393Z,17.20
2018-10-17T21:06:41.565Z,17.20
2018-10-17T21:09:11.907Z,17.10
2018-10-17T21:11:40.234Z,17.10
2018-10-17T21:14:08.378Z,17.00
2018-10-17T21:16:36.356Z,17.00
2018-10-17T21:19:11.142Z,16.90
2018-10-17T21:21:39.441Z,16.80
2018-10-17T21:24:07.427Z,16.80
2018-10-17T21:26:35.472Z,16.70
2018-10-17T21:29:03.498Z,16.70
2018-10-17T21:31:31.498Z,16.70
2018-10-17T21:33:59.545Z,16.70
2018-10-17T21:36:27.538Z,16.70
2018-10-17T21:38:55.613Z,16.70
2018-10-17T21:41:23.673Z,16.60
2018-10-17T21:43:51.652Z,16.60
2018-10-17T21:46:19.729Z,16.50
2018-10-17T21:48:47.777Z,16.50
2018-10-17T21:51:15.773Z,16.50
2018-10-17T21:53:43.929Z,16.40
2018-10-17T21:56:11.937Z,16.30
2018-10-17T21:58:39.965Z,16.20
2018-10-17T22:01:08.151Z,16.30
2018-10-17T22:03:36.135Z,16.30
2018-10-17T22:06:04.153Z,16.40
2018-10-17T22:08:32.165Z,16.40
2018-10-17T22:11:00.198Z,16.40
2018-10-17T22:13:28.166Z,16.40
2018-10-17T22:15:56.173Z,16.40
2018-10-17T22:18:24.161Z,16.30
2018-10-17T22:20:52.135Z,16.30
2018-10-17T22:23:20.117Z,16.20
2018-10-17T22:25:48.154Z,16.30
2018-10-17T22:28:16.142Z,16.30
2018-10-17T22:30:44.187Z,16.20
2018-10-17T22:33:12.168Z,16.20
2018-10-17T22:35:40.182Z,16.30
2018-10-17T22:38:08.240Z,16.20
2018-10-17T22:40:36.177Z,16.10
2018-10-17T22:43:04.423Z,16.20
2018-10-17T22:45:32.414Z,16.20
2018-10-17T22:48:00.409Z,16.10
2018-10-17T22:50:28.389Z,16.10
2018-10-17T22:52:56.380Z,15.90
2018-10-17T22:55:24.441Z,16.00
2018-10-17T22:57:52.365Z,16.00
2018-10-17T23:00:20.365Z,15.90
2018-10-17T23:02:48.389Z,15.80
2018-10-17T23:05:16.473Z,15.80
2018-10-17T23:07:44.657Z,15.90
2018-10-17T23:10:12.680Z,15.80
2018-10-17T23:12:40.685Z,15.90
2018-10-17T23:15:10.995Z,15.80
2018-10-17T23:17:38.978Z,15.80
2018-10-17T23:20:07.042Z,15.70
2018-10-17T23:22:35.036Z,15.80
2018-10-17T23:25:03.081Z,15.80
2018-10-17T23:27:31.896Z,15.90
2018-10-17T23:29:59.919Z,15.90
2018-10-17T23:32:27.964Z,15.90
2018-10-17T23:34:55.974Z,15.80
2018-10-17T23:37:24.022Z,15.80
2018-10-17T23:39:52.066Z,15.80
2018-10-17T23:42:20.122Z,15.80
2018-10-17T23:44:48.161Z,15.70
2018-10-17T23:47:16.229Z,15.70
2018-10-17T23:49:44.251Z,15.60
2018-10-17T23:52:12.282Z,15.70
2018-10-17T23:54:40.426Z,15.70
2018-10-17T23:57:08.433Z,15.70
2018-10-17T23:59:36.487Z,15.60
